SDM6926 UDYZ-ULLI
Flight info
| Callsign | SDM6926 |
|---|---|
| Flight time | N/A |
| Altitude | 37000 |
| Route | TIBLO T918 OGEVI DCT LAGAS N61 KUFAN/K0833F370 B477 PINMU DCT TUVGI/K0841F360 DCT EVZUN DCT ZIZAR DCT VAZLU/K0843F380 DCT UZZID DCT NOKLI/K0852F370 N72 WGD G481 OBABI T619 LUGIL/K0865F380 T619 UMRAL/K0867F370 P163 LADIM/K0869F380 P163 GOLRI L736 OLOPI N50 NUDKO T561 ODATI T875 GENPA GENPA1B |
| Aircraft | A319/M-SDE3FGHIRWY/LB1 |
Departure
| Time | 2026-04-29 14:22 |
|---|---|
| Airport | Zvartnots International Airport (UDYZ) |
Arrival
| Time | N/A |
|---|---|
| Airport | Pulkovo Airport (ULLI) |
| Time | Latitude | Longitude | Altitude | Speed | Heading |
|---|---|---|---|---|---|
| 2026-04-29 13:52 | 40.15095 | 44.40005 | 2836 ft | 0 kts | 359° |
| 2026-04-29 14:09 | 40.15092 | 44.40005 | 2837 ft | 3 kts | 359° |
| 2026-04-29 14:09 | 40.15066 | 44.40006 | 2837 ft | 4 kts | 358° |
| 2026-04-29 14:09 | 40.15039 | 44.40006 | 2837 ft | 4 kts | 3° |
| 2026-04-29 14:10 | 40.15014 | 44.40001 | 2835 ft | 2 kts | 22° |
| 2026-04-29 14:10 | 40.14994 | 44.39985 | 2837 ft | 4 kts | 56° |
| 2026-04-29 14:10 | 40.14985 | 44.39954 | 2836 ft | 4 kts | 87° |
| 2026-04-29 14:10 | 40.14985 | 44.39930 | 2837 ft | 0 kts | 89° |
| 2026-04-29 14:15 | 40.14985 | 44.39934 | 2837 ft | 1 kts | 89° |
| 2026-04-29 14:15 | 40.14985 | 44.39959 | 2837 ft | 4 kts | 89° |
| 2026-04-29 14:15 | 40.14986 | 44.40020 | 2837 ft | 9 kts | 89° |
| 2026-04-29 14:15 | 40.14987 | 44.40123 | 2837 ft | 14 kts | 89° |
| 2026-04-29 14:16 | 40.14988 | 44.40266 | 2837 ft | 18 kts | 90° |
| 2026-04-29 14:16 | 40.14988 | 44.40433 | 2838 ft | 19 kts | 89° |
| 2026-04-29 14:16 | 40.14989 | 44.40601 | 2838 ft | 18 kts | 89° |
| 2026-04-29 14:16 | 40.14991 | 44.40779 | 2837 ft | 20 kts | 89° |
| 2026-04-29 14:17 | 40.14992 | 44.40957 | 2837 ft | 19 kts | 89° |
| 2026-04-29 14:17 | 40.14993 | 44.41132 | 2838 ft | 19 kts | 90° |
| 2026-04-29 14:17 | 40.14994 | 44.41303 | 2838 ft | 19 kts | 89° |
| 2026-04-29 14:17 | 40.14995 | 44.41471 | 2838 ft | 18 kts | 89° |
| 2026-04-29 14:18 | 40.14996 | 44.41612 | 2838 ft | 10 kts | 89° |
| 2026-04-29 14:18 | 40.14982 | 44.41695 | 2837 ft | 9 kts | 121° |
| 2026-04-29 14:18 | 40.14933 | 44.41746 | 2839 ft | 9 kts | 149° |
| 2026-04-29 14:18 | 40.14885 | 44.41786 | 2840 ft | 8 kts | 147° |
| 2026-04-29 14:19 | 40.14847 | 44.41818 | 2841 ft | 5 kts | 149° |
| 2026-04-29 14:19 | 40.14822 | 44.41832 | 2843 ft | 3 kts | 162° |
| 2026-04-29 14:19 | 40.14804 | 44.41835 | 2844 ft | 5 kts | 179° |
| 2026-04-29 14:19 | 40.14771 | 44.41835 | 2843 ft | 9 kts | 180° |
| 2026-04-29 14:20 | 40.14745 | 44.41799 | 2843 ft | 0 kts | 266° |
| 2026-04-29 14:21 | 40.14743 | 44.41627 | 2842 ft | 53 kts | 270° |
| 2026-04-29 14:21 | 40.14739 | 44.40844 | 2837 ft | 117 kts | 269° |
| 2026-04-29 14:21 | 40.14732 | 44.39548 | 2832 ft | 166 kts | 270° |
| 2026-04-29 14:21 | 40.14723 | 44.37971 | 3329 ft | 164 kts | 267° |
| 2026-04-29 14:22 | 40.14719 | 44.36493 | 3898 ft | 166 kts | 269° |
| 2026-04-29 14:22 | 40.14726 | 44.34964 | 4363 ft | 168 kts | 271° |
| 2026-04-29 14:22 | 40.15063 | 44.33472 | 4715 ft | 182 kts | 303° |
| 2026-04-29 14:22 | 40.15830 | 44.32031 | 4926 ft | 204 kts | 306° |
| 2026-04-29 14:23 | 40.16678 | 44.30410 | 5165 ft | 229 kts | 305° |
| 2026-04-29 14:23 | 40.17598 | 44.28627 | 5698 ft | 239 kts | 305° |
| 2026-04-29 14:23 | 40.18523 | 44.26821 | 6518 ft | 240 kts | 303° |
| 2026-04-29 14:23 | 40.19453 | 44.24996 | 7294 ft | 241 kts | 304° |
| 2026-04-29 14:24 | 40.20376 | 44.23178 | 8146 ft | 239 kts | 305° |
| 2026-04-29 14:24 | 40.21293 | 44.21379 | 9007 ft | 238 kts | 306° |
| 2026-04-29 14:24 | 40.22281 | 44.19507 | 9382 ft | 261 kts | 307° |
| 2026-04-29 14:24 | 40.23373 | 44.17488 | 9827 ft | 279 kts | 307° |
| 2026-04-29 14:25 | 40.24518 | 44.15375 | 10287 ft | 295 kts | 307° |
| 2026-04-29 14:25 | 40.25753 | 44.13097 | 10527 ft | 319 kts | 307° |
| 2026-04-29 14:25 | 40.27082 | 44.10636 | 10712 ft | 342 kts | 306° |
| 2026-04-29 14:25 | 40.28489 | 44.08019 | 11022 ft | 358 kts | 306° |
| 2026-04-29 14:26 | 40.29935 | 44.05317 | 11660 ft | 363 kts | 306° |
| 2026-04-29 14:26 | 40.31387 | 44.02592 | 12312 ft | 368 kts | 306° |
| 2026-04-29 14:26 | 40.32857 | 43.99828 | 13010 ft | 371 kts | 306° |
| 2026-04-29 14:26 | 40.34342 | 43.97038 | 13707 ft | 374 kts | 305° |
| 2026-04-29 14:27 | 40.35841 | 43.94232 | 14326 ft | 377 kts | 306° |
| 2026-04-29 14:27 | 40.37599 | 43.91663 | 14911 ft | 381 kts | 319° |
| 2026-04-29 14:27 | 40.39822 | 43.89761 | 15506 ft | 385 kts | 334° |
| 2026-04-29 14:28 | 40.45095 | 43.88276 | 16684 ft | 395 kts | 353° |
| 2026-04-29 14:28 | 40.47846 | 43.87931 | 17240 ft | 399 kts | 353° |
| 2026-04-29 14:28 | 40.50624 | 43.87580 | 17818 ft | 403 kts | 353° |
| 2026-04-29 14:28 | 40.53430 | 43.87223 | 18372 ft | 406 kts | 352° |
| 2026-04-29 14:29 | 40.56261 | 43.86862 | 18843 ft | 410 kts | 352° |
| 2026-04-29 14:29 | 40.59113 | 43.86497 | 19305 ft | 414 kts | 352° |
| 2026-04-29 14:29 | 40.61992 | 43.86128 | 19759 ft | 417 kts | 352° |
| 2026-04-29 14:29 | 40.64898 | 43.85752 | 20213 ft | 420 kts | 352° |
| 2026-04-29 14:30 | 40.67814 | 43.85377 | 20648 ft | 424 kts | 352° |
| 2026-04-29 14:30 | 40.70766 | 43.85001 | 21072 ft | 427 kts | 352° |
| 2026-04-29 14:30 | 40.73740 | 43.84622 | 21490 ft | 431 kts | 351° |
| 2026-04-29 14:30 | 40.76691 | 43.84219 | 21899 ft | 433 kts | 351° |
| 2026-04-29 14:31 | 40.79705 | 43.83779 | 22304 ft | 437 kts | 351° |
| 2026-04-29 14:31 | 40.82733 | 43.83319 | 22702 ft | 440 kts | 350° |
| 2026-04-29 14:31 | 40.85785 | 43.82850 | 23103 ft | 443 kts | 350° |
| 2026-04-29 14:31 | 40.88853 | 43.82378 | 23500 ft | 446 kts | 350° |
| 2026-04-29 14:32 | 40.91951 | 43.81903 | 23828 ft | 449 kts | 350° |
| 2026-04-29 14:32 | 40.95064 | 43.81432 | 24169 ft | 452 kts | 350° |
| 2026-04-29 14:32 | 40.98202 | 43.80965 | 24502 ft | 454 kts | 350° |
| 2026-04-29 14:32 | 41.01392 | 43.80494 | 24831 ft | 457 kts | 350° |
| 2026-04-29 14:33 | 41.04531 | 43.80030 | 25153 ft | 459 kts | 350° |
| 2026-04-29 14:33 | 41.07729 | 43.79713 | 25455 ft | 464 kts | 357° |
| 2026-04-29 14:33 | 41.10968 | 43.80058 | 25758 ft | 470 kts | 7° |
| 2026-04-29 14:33 | 41.14158 | 43.81108 | 26068 ft | 476 kts | 16° |
| 2026-04-29 14:34 | 41.17212 | 43.82865 | 26348 ft | 481 kts | 26° |
| 2026-04-29 14:34 | 41.20030 | 43.85303 | 26652 ft | 486 kts | 36° |
| 2026-04-29 14:34 | 41.22726 | 43.88035 | 26951 ft | 488 kts | 36° |
| 2026-04-29 14:34 | 41.25433 | 43.90779 | 27239 ft | 490 kts | 36° |
| 2026-04-29 14:35 | 41.28151 | 43.93529 | 27536 ft | 492 kts | 36° |
| 2026-04-29 14:35 | 41.30881 | 43.96287 | 27824 ft | 494 kts | 36° |
| 2026-04-29 14:35 | 41.33618 | 43.99056 | 28233 ft | 493 kts | 36° |
| 2026-04-29 14:35 | 41.36339 | 44.01818 | 28630 ft | 492 kts | 36° |
| 2026-04-29 14:36 | 41.39054 | 44.04585 | 29022 ft | 491 kts | 36° |
| 2026-04-29 14:36 | 41.41769 | 44.07358 | 29425 ft | 491 kts | 36° |
| 2026-04-29 14:36 | 41.44479 | 44.10124 | 29820 ft | 491 kts | 36° |
| 2026-04-29 14:36 | 41.47189 | 44.12892 | 30192 ft | 491 kts | 36° |
| 2026-04-29 14:37 | 41.49895 | 44.15658 | 30518 ft | 491 kts | 36° |
| 2026-04-29 14:37 | 41.52476 | 44.18644 | 30870 ft | 491 kts | 45° |
| 2026-04-29 14:37 | 41.54666 | 44.22121 | 31212 ft | 490 kts | 55° |
| 2026-04-29 14:37 | 41.56417 | 44.26021 | 31551 ft | 489 kts | 65° |
| 2026-04-29 14:38 | 41.57687 | 44.30227 | 31910 ft | 487 kts | 74° |
| 2026-04-29 14:38 | 41.58448 | 44.34614 | 32256 ft | 484 kts | 83° |
| 2026-04-29 14:38 | 41.58921 | 44.39063 | 32612 ft | 484 kts | 84° |
| 2026-04-29 14:38 | 41.59390 | 44.43503 | 32956 ft | 483 kts | 84° |
| 2026-04-29 14:39 | 41.59867 | 44.47948 | 33291 ft | 483 kts | 83° |
| 2026-04-29 14:39 | 41.60422 | 44.52384 | 33651 ft | 483 kts | 81° |
| 2026-04-29 14:39 | 41.61077 | 44.56786 | 34017 ft | 482 kts | 79° |
| 2026-04-29 14:39 | 41.61795 | 44.61163 | 34329 ft | 482 kts | 79° |
| 2026-04-29 14:40 | 41.62532 | 44.65532 | 34616 ft | 482 kts | 79° |
| 2026-04-29 14:40 | 41.63257 | 44.69902 | 34906 ft | 482 kts | 79° |
| 2026-04-29 14:40 | 41.63960 | 44.74279 | 35196 ft | 481 kts | 80° |
| 2026-04-29 14:40 | 41.64641 | 44.78654 | 35470 ft | 481 kts | 80° |
| 2026-04-29 14:41 | 41.65306 | 44.83036 | 35726 ft | 481 kts | 81° |
| 2026-04-29 14:41 | 41.65963 | 44.87418 | 35964 ft | 481 kts | 81° |
| 2026-04-29 14:41 | 41.66618 | 44.91812 | 36210 ft | 481 kts | 81° |
| 2026-04-29 14:41 | 41.67274 | 44.96209 | 36440 ft | 481 kts | 81° |
| 2026-04-29 14:42 | 41.67932 | 45.00601 | 36650 ft | 481 kts | 81° |
| 2026-04-29 14:42 | 41.68592 | 45.04994 | 36875 ft | 481 kts | 81° |
| 2026-04-29 14:42 | 41.69255 | 45.09389 | 37041 ft | 482 kts | 81° |
| 2026-04-29 14:43 | 41.70575 | 45.18214 | 37077 ft | 484 kts | 81° |
| 2026-04-29 14:43 | 41.72076 | 45.26993 | 37089 ft | 486 kts | 74° |
| 2026-04-29 14:44 | 41.74113 | 45.35621 | 37077 ft | 486 kts | 74° |
| 2026-04-29 14:44 | 41.76138 | 45.44260 | 37090 ft | 485 kts | 74° |
| 2026-04-29 14:45 | 41.78158 | 45.52887 | 37081 ft | 486 kts | 74° |
| 2026-04-29 14:45 | 41.80166 | 45.61526 | 37094 ft | 485 kts | 75° |
| 2026-04-29 14:46 | 41.82175 | 45.70173 | 37090 ft | 485 kts | 75° |
| 2026-04-29 14:46 | 41.84175 | 45.78822 | 37094 ft | 486 kts | 75° |
| 2026-04-29 14:47 | 41.86165 | 45.87489 | 37097 ft | 486 kts | 75° |